createdAt,value
2017-08-11T00:00:50.959Z,17.2
2017-08-11T00:01:53.407Z,17.2
2017-08-11T00:02:55.877Z,17.2
2017-08-11T00:03:58.675Z,17.2
2017-08-11T00:05:01.461Z,17.1
2017-08-11T00:06:04.252Z,17.1
2017-08-11T00:07:06.710Z,17.1
2017-08-11T00:08:09.162Z,17.1
2017-08-11T00:09:12.293Z,17.1
2017-08-11T00:10:15.076Z,17.1
2017-08-11T00:11:17.533Z,17.1
2017-08-11T00:12:20.332Z,17.1
2017-08-11T00:13:23.118Z,17.1
2017-08-11T00:14:25.588Z,17.1
2017-08-11T00:15:28.044Z,17.1
2017-08-11T00:16:30.503Z,17.1
2017-08-11T00:17:33.296Z,17.1
2017-08-11T00:18:36.109Z,17.1
2017-08-11T00:19:38.566Z,17.1
2017-08-11T00:20:41.683Z,17
2017-08-11T00:21:44.151Z,17.1
2017-08-11T00:22:46.604Z,17
2017-08-11T00:23:49.052Z,17.1
2017-08-11T00:24:52.176Z,17.1
2017-08-11T00:25:54.634Z,17
2017-08-11T00:26:57.104Z,17
2017-08-11T00:28:00.239Z,17
2017-08-11T00:29:03.021Z,17
2017-08-11T00:30:06.212Z,17
2017-08-11T00:31:09.023Z,17
2017-08-11T00:32:11.470Z,17
2017-08-11T00:33:13.950Z,17
2017-08-11T00:34:16.759Z,17
2017-08-11T00:35:19.548Z,17
2017-08-11T00:36:22.013Z,17
2017-08-11T00:37:24.467Z,17
2017-08-11T00:38:27.246Z,17
2017-08-11T00:39:29.700Z,17
2017-08-11T00:40:32.503Z,17
2017-08-11T00:41:34.950Z,17
2017-08-11T00:42:37.405Z,17
2017-08-11T00:43:39.840Z,17.1
2017-08-11T00:44:42.299Z,17
2017-08-11T00:45:44.767Z,17.1
2017-08-11T00:46:47.220Z,17.1
2017-08-11T00:47:50.009Z,17.1
2017-08-11T00:48:52.458Z,17.1
2017-08-11T00:49:55.586Z,17.1
2017-08-11T00:50:58.044Z,17.1
2017-08-11T00:52:00.838Z,17.1
2017-08-11T00:53:03.299Z,17.1
2017-08-11T00:54:05.746Z,17.1
2017-08-11T00:55:08.201Z,17.1
2017-08-11T00:56:10.657Z,17.1
2017-08-11T00:57:13.111Z,17.1
2017-08-11T00:58:15.568Z,17.1
2017-08-11T00:59:18.396Z,17.1
2017-08-11T01:00:20.842Z,17.1
2017-08-11T01:01:23.293Z,17.1
2017-08-11T01:02:26.444Z,17.1
2017-08-11T01:03:29.235Z,17.1
2017-08-11T01:04:31.676Z,17.1
2017-08-11T01:05:34.466Z,17.2
2017-08-11T01:06:36.918Z,17.1
2017-08-11T01:07:39.380Z,17.1
2017-08-11T01:08:42.162Z,17.1
2017-08-11T01:09:44.614Z,17.1
2017-08-11T01:10:47.442Z,17.1
2017-08-11T01:11:49.923Z,17.1
2017-08-11T01:12:52.725Z,17.1
2017-08-11T01:13:55.174Z,17
2017-08-11T01:14:58.349Z,17
2017-08-11T01:16:00.799Z,17
2017-08-11T01:17:04.284Z,17
2017-08-11T01:18:06.739Z,17
2017-08-11T01:19:09.176Z,17
2017-08-11T01:20:11.972Z,17
2017-08-11T01:21:14.445Z,17.1
2017-08-11T01:22:16.895Z,17.1
2017-08-11T01:23:20.048Z,17
2017-08-11T01:24:22.500Z,17
2017-08-11T01:25:24.987Z,17
2017-08-11T01:26:27.444Z,17
2017-08-11T01:27:29.901Z,17
2017-08-11T01:28:32.687Z,17
2017-08-11T01:29:35.152Z,17
2017-08-11T01:30:37.597Z,17
2017-08-11T01:31:40.395Z,17
2017-08-11T01:32:43.195Z,17
2017-08-11T01:33:45.634Z,17
2017-08-11T01:34:48.088Z,17
2017-08-11T01:35:51.579Z,16.9
2017-08-11T01:36:54.362Z,17
2017-08-11T01:37:57.483Z,17
2017-08-11T01:39:00.640Z,17
2017-08-11T01:40:03.768Z,17
2017-08-11T01:41:06.927Z,17
2017-08-11T01:42:09.391Z,17
2017-08-11T01:43:11.834Z,17
2017-08-11T01:44:14.637Z,16.9
2017-08-11T01:45:17.429Z,17
2017-08-11T01:46:19.892Z,17
2017-08-11T01:47:22.334Z,17
2017-08-11T01:48:24.790Z,17
2017-08-11T01:49:27.588Z,17
2017-08-11T01:50:30.389Z,17
2017-08-11T01:51:33.167Z,17
2017-08-11T01:52:35.969Z,17
2017-08-11T01:53:38.441Z,16.9
2017-08-11T01:54:41.238Z,16.9
2017-08-11T01:55:44.039Z,16.9
2017-08-11T01:56:46.482Z,16.9
2017-08-11T01:57:48.937Z,16.9
2017-08-11T01:58:51.392Z,16.9
2017-08-11T01:59:54.186Z,16.9
2017-08-11T02:00:56.656Z,16.9
2017-08-11T02:01:59.433Z,16.9
2017-08-11T02:03:01.891Z,16.9
2017-08-11T02:04:04.681Z,16.9
2017-08-11T02:05:07.473Z,17
2017-08-11T02:06:09.911Z,17
2017-08-11T02:07:12.372Z,17
2017-08-11T02:08:14.819Z,17
2017-08-11T02:09:17.292Z,17
2017-08-11T02:10:19.741Z,17
2017-08-11T02:11:22.534Z,17
2017-08-11T02:12:25.339Z,17
2017-08-11T02:13:28.132Z,17
2017-08-11T02:14:30.578Z,17
2017-08-11T02:15:33.383Z,17
2017-08-11T02:16:35.831Z,17
2017-08-11T02:17:38.278Z,17.1
2017-08-11T02:18:40.729Z,17.1
2017-08-11T02:19:43.182Z,17.1
2017-08-11T02:20:45.629Z,17.1
2017-08-11T02:21:48.426Z,17.1
2017-08-11T02:22:50.875Z,17.1
2017-08-11T02:23:53.350Z,17.1
2017-08-11T02:24:56.816Z,17.1
2017-08-11T02:25:59.264Z,17.1
2017-08-11T02:27:02.392Z,17.1
2017-08-11T02:28:05.191Z,17.1
2017-08-11T02:29:07.988Z,17.1
2017-08-11T02:30:10.444Z,17.1
2017-08-11T02:31:13.237Z,17.1
2017-08-11T02:32:16.031Z,17.1
2017-08-11T02:33:18.823Z,17.1
2017-08-11T02:34:21.289Z,17.1
2017-08-11T02:35:24.068Z,17.1
2017-08-11T02:36:26.526Z,17.1
2017-08-11T02:37:28.984Z,17.2
2017-08-11T02:38:31.790Z,17.1
2017-08-11T02:39:34.589Z,17.2
2017-08-11T02:40:37.376Z,17.2
2017-08-11T02:41:39.827Z,17.2
2017-08-11T02:42:42.304Z,17.2
2017-08-11T02:43:45.095Z,17.2
2017-08-11T02:44:47.537Z,17.2
2017-08-11T02:45:50.360Z,17.2
2017-08-11T02:46:53.485Z,17.2
2017-08-11T02:47:56.305Z,17.2
2017-08-11T02:48:59.106Z,17.2
2017-08-11T02:50:01.928Z,17.3
2017-08-11T02:51:04.746Z,17.2
2017-08-11T02:52:07.543Z,17.3
2017-08-11T02:53:09.996Z,17.3
2017-08-11T02:54:13.141Z,17.3
2017-08-11T02:55:15.593Z,17.3
2017-08-11T02:56:18.398Z,17.3
2017-08-11T02:57:20.835Z,17.3
2017-08-11T02:58:23.285Z,17.3
2017-08-11T02:59:25.761Z,17.3
2017-08-11T03:00:28.556Z,17.3
2017-08-11T03:01:31.010Z,17.3
2017-08-11T03:02:33.456Z,17.3
2017-08-11T03:03:36.260Z,17.3
2017-08-11T03:04:38.712Z,17.3
2017-08-11T03:05:41.855Z,17.3
2017-08-11T03:06:44.297Z,17.3
2017-08-11T03:07:46.755Z,17.4
2017-08-11T03:08:49.211Z,17.4
2017-08-11T03:09:52.338Z,17.4
2017-08-11T03:10:54.793Z,17.3
2017-08-11T03:11:57.245Z,17.3
2017-08-11T03:13:00.034Z,17.3
2017-08-11T03:14:02.488Z,17.3
2017-08-11T03:15:05.640Z,17.3
2017-08-11T03:16:08.466Z,17.3
2017-08-11T03:17:11.280Z,17.3
2017-08-11T03:18:13.731Z,17.3
2017-08-11T03:19:16.180Z,17.4
2017-08-11T03:20:18.970Z,17.4
2017-08-11T03:21:21.755Z,17.4
2017-08-11T03:22:24.196Z,17.4
2017-08-11T03:23:27.003Z,17.4
2017-08-11T03:24:29.455Z,17.3
2017-08-11T03:25:32.241Z,17.3
2017-08-11T03:26:34.726Z,17.3
2017-08-11T03:27:37.182Z,17.3
2017-08-11T03:28:40.645Z,17.3
2017-08-11T03:29:43.101Z,17.3
2017-08-11T03:30:45.912Z,17.3
2017-08-11T03:31:48.702Z,17.3
2017-08-11T03:32:51.161Z,17.3
2017-08-11T03:33:53.962Z,17.3
2017-08-11T03:34:56.394Z,17.3
2017-08-11T03:35:58.844Z,17.3
2017-08-11T03:37:01.292Z,17.3
2017-08-11T03:38:04.446Z,17.3
2017-08-11T03:39:07.573Z,17.3
2017-08-11T03:40:10.364Z,17.3
2017-08-11T03:41:12.828Z,17.3
2017-08-11T03:42:16.026Z,17.2
2017-08-11T03:43:18.475Z,17.2
2017-08-11T03:44:20.924Z,17.2
2017-08-11T03:45:24.053Z,17.1
2017-08-11T03:46:27.200Z,17.1
2017-08-11T03:47:29.638Z,17.1
2017-08-11T03:48:32.440Z,17.1
2017-08-11T03:49:34.905Z,17.1
2017-08-11T03:50:37.371Z,17.1
2017-08-11T03:51:40.161Z,17.1
2017-08-11T03:52:42.614Z,17
2017-08-11T03:53:45.061Z,17
2017-08-11T03:54:47.916Z,17
2017-08-11T03:55:50.703Z,17
2017-08-11T03:56:53.152Z,17
2017-08-11T03:57:55.612Z,17
2017-08-11T03:58:58.745Z,17
2017-08-11T04:00:01.198Z,16.9
2017-08-11T04:01:04.338Z,16.9
2017-08-11T04:02:06.790Z,16.9
2017-08-11T04:03:09.244Z,16.9
2017-08-11T04:04:11.704Z,16.9
2017-08-11T04:05:14.168Z,16.9
2017-08-11T04:06:16.939Z,16.8
2017-08-11T04:07:19.409Z,16.8
2017-08-11T04:08:22.187Z,16.9
2017-08-11T04:09:24.982Z,16.9
2017-08-11T04:10:27.772Z,16.8
2017-08-11T04:11:30.572Z,16.8
2017-08-11T04:12:33.358Z,16.8
2017-08-11T04:13:35.818Z,16.8
2017-08-11T04:14:38.268Z,16.8
2017-08-11T04:15:40.710Z,16.8
2017-08-11T04:16:43.494Z,16.8
2017-08-11T04:17:45.947Z,16.8
2017-08-11T04:18:48.410Z,16.8
2017-08-11T04:19:50.861Z,16.8
2017-08-11T04:20:53.633Z,16.8
2017-08-11T04:21:56.092Z,16.7
2017-08-11T04:22:58.561Z,16.8
2017-08-11T04:24:01.350Z,16.8
2017-08-11T04:25:04.135Z,16.8
2017-08-11T04:26:07.290Z,16.8
2017-08-11T04:27:09.734Z,16.8
2017-08-11T04:28:12.531Z,16.8
2017-08-11T04:29:15.018Z,16.8
2017-08-11T04:30:17.476Z,16.8
2017-08-11T04:31:20.277Z,16.8
2017-08-11T04:32:22.745Z,16.8
2017-08-11T04:33:25.224Z,16.8
2017-08-11T04:34:27.686Z,16.8
2017-08-11T04:35:30.140Z,16.7
2017-08-11T04:36:32.938Z,16.7
2017-08-11T04:37:35.396Z,16.7
2017-08-11T04:38:37.839Z,16.7
2017-08-11T04:39:40.299Z,16.8
2017-08-11T04:40:42.770Z,16.8
2017-08-11T04:41:45.556Z,16.8
2017-08-11T04:42:48.016Z,16.8
2017-08-11T04:43:50.492Z,16.8
2017-08-11T04:44:52.942Z,16.8
2017-08-11T04:45:56.096Z,16.8
2017-08-11T04:46:58.596Z,16.8
2017-08-11T04:48:01.051Z,16.7
2017-08-11T04:49:03.504Z,16.7
2017-08-11T04:50:06.298Z,16.7
2017-08-11T04:51:08.758Z,16.7
2017-08-11T04:52:11.223Z,16.7
2017-08-11T04:53:13.674Z,16.8
2017-08-11T04:54:16.146Z,16.7
2017-08-11T04:55:19.271Z,16.7
2017-08-11T04:56:21.761Z,16.7
2017-08-11T04:57:24.578Z,16.7
2017-08-11T04:58:27.377Z,16.6
2017-08-11T04:59:30.172Z,16.7
2017-08-11T05:00:32.629Z,16.7
2017-08-11T05:01:35.426Z,16.6
2017-08-11T05:02:38.587Z,16.7
2017-08-11T05:03:41.048Z,16.6
2017-08-11T05:04:43.497Z,16.6
2017-08-11T05:05:45.984Z,16.7
2017-08-11T05:06:48.427Z,16.6
2017-08-11T05:07:51.224Z,16.7
2017-08-11T05:08:54.023Z,16.6
2017-08-11T05:09:56.819Z,16.6
2017-08-11T05:10:59.586Z,16.6
2017-08-11T05:12:02.429Z,16.6
2017-08-11T05:13:05.563Z,16.6
2017-08-11T05:14:08.019Z,16.6
2017-08-11T05:15:10.509Z,16.6
2017-08-11T05:16:13.307Z,16.6
2017-08-11T05:17:16.105Z,16.6
2017-08-11T05:18:18.903Z,16.6
2017-08-11T05:19:21.360Z,16.6
2017-08-11T05:20:23.811Z,16.5
2017-08-11T05:21:26.287Z,16.6
2017-08-11T05:22:28.731Z,16.6
2017-08-11T05:23:31.521Z,16.6
2017-08-11T05:24:34.677Z,16.5
2017-08-11T05:25:37.132Z,16.5
2017-08-11T05:26:39.911Z,16.5
2017-08-11T05:27:42.711Z,16.5
2017-08-11T05:28:45.168Z,16.5
2017-08-11T05:29:48.326Z,16.5
2017-08-11T05:30:51.120Z,16.5
2017-08-11T05:31:54.239Z,16.5
2017-08-11T05:32:56.705Z,16.5
2017-08-11T05:33:59.195Z,16.5
2017-08-11T05:35:01.987Z,16.5
2017-08-11T05:36:04.451Z,16.5
2017-08-11T05:37:06.897Z,16.5
2017-08-11T05:38:09.694Z,16.5
2017-08-11T05:39:12.847Z,16.5
2017-08-11T05:40:15.289Z,16.5
2017-08-11T05:41:18.429Z,16.5
2017-08-11T05:42:21.221Z,16.5
2017-08-11T05:43:23.689Z,16.5
2017-08-11T05:44:26.805Z,16.5
2017-08-11T05:45:29.255Z,16.5
2017-08-11T05:46:32.411Z,16.5
2017-08-11T05:47:35.209Z,16.5
2017-08-11T05:48:38.333Z,16.5
2017-08-11T05:49:41.123Z,16.5
2017-08-11T05:50:43.914Z,16.5
2017-08-11T05:51:46.725Z,16.5
2017-08-11T05:52:49.524Z,16.5
2017-08-11T05:53:52.311Z,16.5
2017-08-11T05:54:54.769Z,16.5
2017-08-11T05:55:57.235Z,16.5
2017-08-11T05:56:59.684Z,16.5
2017-08-11T05:58:02.490Z,16.5
2017-08-11T05:59:04.948Z,16.5
2017-08-11T06:00:07.742Z,16.5
2017-08-11T06:01:10.197Z,16.5
2017-08-11T06:02:12.990Z,16.5
2017-08-11T06:03:15.778Z,16.5
2017-08-11T06:04:18.573Z,16.5
2017-08-11T06:05:21.032Z,16.5
2017-08-11T06:06:23.847Z,16.5
2017-08-11T06:07:26.309Z,16.5
2017-08-11T06:08:29.101Z,16.6
2017-08-11T06:09:31.549Z,16.6
2017-08-11T06:10:34.029Z,16.6
2017-08-11T06:11:36.477Z,16.6
2017-08-11T06:12:38.938Z,16.5
2017-08-11T06:13:41.395Z,16.5
2017-08-11T06:14:44.875Z,16.5
2017-08-11T06:15:47.669Z,16.5
2017-08-11T06:16:50.127Z,16.6
2017-08-11T06:17:52.909Z,16.6
2017-08-11T06:18:55.364Z,16.6
2017-08-11T06:19:58.149Z,16.6
2017-08-11T06:21:01.298Z,16.6
2017-08-11T06:22:04.083Z,16.6
2017-08-11T06:23:06.537Z,16.6
2017-08-11T06:24:10.009Z,16.6
2017-08-11T06:25:12.458Z,16.6
2017-08-11T06:26:15.248Z,16.7
2017-08-11T06:27:18.061Z,16.7
2017-08-11T06:28:20.498Z,16.7
2017-08-11T06:29:23.300Z,16.7
2017-08-11T06:30:25.753Z,16.8
2017-08-11T06:31:28.534Z,16.7
2017-08-11T06:32:31.320Z,16.7
2017-08-11T06:33:34.114Z,16.8
2017-08-11T06:34:36.559Z,16.8
2017-08-11T06:35:39.022Z,16.8
2017-08-11T06:36:42.149Z,16.8
2017-08-11T06:37:44.609Z,16.8
2017-08-11T06:38:47.053Z,16.8
2017-08-11T06:39:49.848Z,16.8
2017-08-11T06:40:52.645Z,16.8
2017-08-11T06:41:55.449Z,16.8
2017-08-11T06:42:58.578Z,16.8
2017-08-11T06:44:01.696Z,16.9
2017-08-11T06:45:04.827Z,16.9
2017-08-11T06:46:07.301Z,16.9
2017-08-11T06:47:10.093Z,16.9
2017-08-11T06:48:12.542Z,16.8
2017-08-11T06:49:15.329Z,16.8
2017-08-11T06:50:18.124Z,16.8
2017-08-11T06:51:20.935Z,16.8
2017-08-11T06:52:23.735Z,16.9
2017-08-11T06:53:26.523Z,16.9
2017-08-11T06:54:28.975Z,16.9
2017-08-11T06:55:31.443Z,16.9
2017-08-11T06:56:34.261Z,16.9
2017-08-11T06:57:36.721Z,16.9
2017-08-11T06:58:39.162Z,16.8
2017-08-11T06:59:41.636Z,16.8
2017-08-11T07:00:44.436Z,16.8
2017-08-11T07:01:47.227Z,16.8
2017-08-11T07:02:50.357Z,16.8
2017-08-11T07:03:52.809Z,16.8
2017-08-11T07:04:55.259Z,16.8
2017-08-11T07:05:57.712Z,16.8
2017-08-11T07:07:00.848Z,16.8
2017-08-11T07:08:04.313Z,16.8
2017-08-11T07:09:07.099Z,16.8
2017-08-11T07:10:10.261Z,16.8
2017-08-11T07:11:12.707Z,16.8
2017-08-11T07:12:15.162Z,16.7
2017-08-11T07:13:17.962Z,16.8
2017-08-11T07:14:20.418Z,16.8
2017-08-11T07:15:22.870Z,16.8
2017-08-11T07:16:25.325Z,16.8
2017-08-11T07:17:28.145Z,16.8
2017-08-11T07:18:30.941Z,16.8
2017-08-11T07:19:33.380Z,16.8
2017-08-11T07:20:35.852Z,16.8
2017-08-11T07:21:38.661Z,16.8
2017-08-11T07:22:41.114Z,16.8
2017-08-11T07:23:43.905Z,16.7
2017-08-11T07:24:46.355Z,16.7
2017-08-11T07:25:49.494Z,16.7
2017-08-11T07:26:52.662Z,16.7
2017-08-11T07:27:55.112Z,16.7
2017-08-11T07:28:57.572Z,16.8
2017-08-11T07:30:00.025Z,16.8
2017-08-11T07:31:02.463Z,16.8
2017-08-11T07:32:04.919Z,16.8
2017-08-11T07:33:07.755Z,16.8
2017-08-11T07:34:10.193Z,16.8
2017-08-11T07:35:12.644Z,16.7
2017-08-11T07:36:15.438Z,16.8
2017-08-11T07:37:18.574Z,16.8
2017-08-11T07:38:21.021Z,16.7
2017-08-11T07:39:23.818Z,16.7
2017-08-11T07:40:26.266Z,16.7
2017-08-11T07:41:28.736Z,16.7
2017-08-11T07:42:31.524Z,16.7
2017-08-11T07:43:34.308Z,16.7
2017-08-11T07:44:36.773Z,16.8
2017-08-11T07:45:39.573Z,16.7
2017-08-11T07:46:42.376Z,16.7
2017-08-11T07:47:44.837Z,16.7
2017-08-11T07:48:47.959Z,16.7
2017-08-11T07:49:50.751Z,16.7
2017-08-11T07:50:53.561Z,16.7
2017-08-11T07:51:56.004Z,16.6
2017-08-11T07:52:58.464Z,16.6
2017-08-11T07:54:00.907Z,16.6
2017-08-11T07:55:03.364Z,16.6
2017-08-11T07:56:05.814Z,16.6
2017-08-11T07:57:08.267Z,16.6
2017-08-11T07:58:10.705Z,16.5
2017-08-11T07:59:14.197Z,16.5
2017-08-11T08:00:16.651Z,16.3
2017-08-11T08:01:19.437Z,16.3
2017-08-11T08:02:21.894Z,16.3
2017-08-11T08:03:25.019Z,16.2
2017-08-11T08:04:27.466Z,16.2
2017-08-11T08:05:29.965Z,16.2
2017-08-11T08:06:32.909Z,16.1
2017-08-11T08:07:35.623Z,16.2
2017-08-11T08:08:38.685Z,16.2
2017-08-11T08:09:41.777Z,16.2
2017-08-11T08:10:44.804Z,16.2
2017-08-11T08:11:47.880Z,16.2
2017-08-11T08:12:50.929Z,16.3
2017-08-11T08:13:53.649Z,16.2
2017-08-11T08:14:56.365Z,16.3
2017-08-11T08:15:59.099Z,16.3
2017-08-11T08:17:02.145Z,16.4
2017-08-11T08:18:05.213Z,16.4
2017-08-11T08:19:07.907Z,16.4
2017-08-11T08:20:10.443Z,16.4
2017-08-11T08:21:12.908Z,16.4
2017-08-11T08:22:16.163Z,16.4
2017-08-11T08:23:19.308Z,16.4
2017-08-11T08:24:21.768Z,16.4
2017-08-11T08:25:24.211Z,16.4
2017-08-11T08:26:26.661Z,16.5
2017-08-11T08:27:29.452Z,16.5
2017-08-11T08:28:32.929Z,16.5
2017-08-11T08:29:35.747Z,16.5
2017-08-11T08:30:38.194Z,16.5
2017-08-11T08:31:40.646Z,16.5
2017-08-11T08:32:43.112Z,16.5
2017-08-11T08:33:45.904Z,16.5
2017-08-11T08:34:48.365Z,16.5
2017-08-11T08:35:51.162Z,16.5
2017-08-11T08:36:53.945Z,16.5
2017-08-11T08:37:56.733Z,16.4
2017-08-11T08:38:59.201Z,16.4
2017-08-11T08:40:01.660Z,16.4
2017-08-11T08:41:04.478Z,16.4
2017-08-11T08:42:07.264Z,16.5
2017-08-11T08:43:09.728Z,16.5
2017-08-11T08:44:12.535Z,16.5
2017-08-11T08:45:15.327Z,16.5
2017-08-11T08:46:18.119Z,16.5
2017-08-11T08:47:20.909Z,16.5
2017-08-11T08:48:23.368Z,16.5
2017-08-11T08:49:26.168Z,16.5
2017-08-11T08:50:28.972Z,16.5
2017-08-11T08:51:31.426Z,16.6
2017-08-11T08:52:34.267Z,16.6
2017-08-11T08:53:37.059Z,16.6
2017-08-11T08:54:39.861Z,16.6
2017-08-11T08:55:42.319Z,16.6
2017-08-11T08:56:45.110Z,16.5
2017-08-11T08:57:47.917Z,16.5
2017-08-11T08:58:50.405Z,16.5
2017-08-11T08:59:53.528Z,16.4
2017-08-11T09:00:56.322Z,16.4
2017-08-11T09:01:59.118Z,16.4
2017-08-11T09:03:01.932Z,16.4
2017-08-11T09:04:05.066Z,16.4
2017-08-11T09:05:07.508Z,16.4
2017-08-11T09:06:10.303Z,16.4
2017-08-11T09:07:13.105Z,16.4
2017-08-11T09:08:15.557Z,16.4
2017-08-11T09:09:18.421Z,16.4
2017-08-11T09:10:21.208Z,16.5
2017-08-11T09:11:24.038Z,16.5
2017-08-11T09:12:26.488Z,16.4
2017-08-11T09:13:29.284Z,16.4
2017-08-11T09:14:31.744Z,16.5
2017-08-11T09:15:34.539Z,16.5
2017-08-11T09:16:37.334Z,16.5
2017-08-11T09:17:40.120Z,16.5
2017-08-11T09:18:43.000Z,16.6
2017-08-11T09:19:45.786Z,16.6
2017-08-11T09:20:48.234Z,16.6
2017-08-11T09:21:50.696Z,16.6
2017-08-11T09:22:53.488Z,16.6
2017-08-11T09:23:55.974Z,16.6
2017-08-11T09:24:58.439Z,16.7
2017-08-11T09:26:01.229Z,16.7
2017-08-11T09:27:04.375Z,16.7
2017-08-11T09:28:06.827Z,16.7
2017-08-11T09:29:09.285Z,16.8
2017-08-11T09:30:11.742Z,16.7
2017-08-11T09:31:14.522Z,16.8
2017-08-11T09:32:17.316Z,16.7
2017-08-11T09:33:19.775Z,16.7
2017-08-11T09:34:22.567Z,16.7
2017-08-11T09:35:25.427Z,16.7
2017-08-11T09:36:28.263Z,16.7
2017-08-11T09:37:31.053Z,16.7
2017-08-11T09:38:33.876Z,16.7
2017-08-11T09:39:36.685Z,16.7
2017-08-11T09:40:39.135Z,16.7
2017-08-11T09:41:41.590Z,16.7
2017-08-11T09:42:44.037Z,16.7
2017-08-11T09:43:46.484Z,16.7
2017-08-11T09:44:48.927Z,16.7
2017-08-11T09:45:51.476Z,16.7
2017-08-11T09:46:53.931Z,16.7
2017-08-11T09:47:56.380Z,16.7
2017-08-11T09:48:59.180Z,16.7
2017-08-11T09:50:02.014Z,16.7
2017-08-11T09:51:04.813Z,16.7
2017-08-11T09:52:07.278Z,16.7
2017-08-11T09:53:10.410Z,16.7
2017-08-11T09:54:12.877Z,16.7
2017-08-11T09:55:16.001Z,16.7
2017-08-11T09:56:18.450Z,16.7
2017-08-11T09:57:21.261Z,16.8
2017-08-11T09:58:23.721Z,16.7
2017-08-11T09:59:26.542Z,16.8
2017-08-11T10:00:29.691Z,16.8
2017-08-11T10:01:32.521Z,16.9
2017-08-11T10:02:34.974Z,16.9
2017-08-11T10:03:37.442Z,16.9
2017-08-11T10:04:40.258Z,16.8
2017-08-11T10:05:43.053Z,16.9
2017-08-11T10:06:46.224Z,16.9
2017-08-11T10:07:48.683Z,16.9
2017-08-11T10:08:51.126Z,17
2017-08-11T10:09:54.608Z,16.9
2017-08-11T10:10:57.740Z,16.9
2017-08-11T10:12:00.536Z,16.9
2017-08-11T10:13:02.983Z,16.9
2017-08-11T10:14:05.452Z,17
2017-08-11T10:15:08.266Z,17
2017-08-11T10:16:10.707Z,17
2017-08-11T10:17:13.170Z,17
2017-08-11T10:18:15.975Z,17
2017-08-11T10:19:18.779Z,17.1
2017-08-11T10:20:21.594Z,17.1
2017-08-11T10:21:24.034Z,17.1
2017-08-11T10:22:26.828Z,17.1
2017-08-11T10:23:29.637Z,17.1
2017-08-11T10:24:32.102Z,17.1
2017-08-11T10:25:34.570Z,17.1
2017-08-11T10:26:37.357Z,17.1
2017-08-11T10:27:39.825Z,17.2
2017-08-11T10:28:42.279Z,17.2
2017-08-11T10:29:44.750Z,17.1
2017-08-11T10:30:47.537Z,17.2
2017-08-11T10:31:49.993Z,17.2
2017-08-11T10:32:52.472Z,17.3
2017-08-11T10:33:54.921Z,17.3
2017-08-11T10:34:57.380Z,17.3
2017-08-11T10:36:00.173Z,17.3
2017-08-11T10:37:02.629Z,17.4
2017-08-11T10:38:05.090Z,17.4
2017-08-11T10:39:07.544Z,17.4
2017-08-11T10:40:10.327Z,17.4
2017-08-11T10:41:13.131Z,17.4
2017-08-11T10:42:16.267Z,17.4
2017-08-11T10:43:19.066Z,17.4
2017-08-11T10:44:21.514Z,17.4
2017-08-11T10:45:23.987Z,17.4
2017-08-11T10:46:26.448Z,17.5
2017-08-11T10:47:28.896Z,17.5
2017-08-11T10:48:31.365Z,17.5
2017-08-11T10:49:33.824Z,17.5
2017-08-11T10:50:36.283Z,17.5
2017-08-11T10:51:39.079Z,17.5
2017-08-11T10:52:41.529Z,17.5
2017-08-11T10:53:44.319Z,17.5
2017-08-11T10:54:47.141Z,17.5
2017-08-11T10:55:49.581Z,17.6
2017-08-11T10:56:52.061Z,17.6
2017-08-11T10:57:54.845Z,17.5
2017-08-11T10:58:57.970Z,17.6
2017-08-11T11:00:00.426Z,17.5
2017-08-11T11:01:02.890Z,17.6
2017-08-11T11:02:05.713Z,17.5
2017-08-11T11:03:08.173Z,17.5
2017-08-11T11:04:10.624Z,17.5
2017-08-11T11:05:13.093Z,17.6
2017-08-11T11:06:15.548Z,17.5
2017-08-11T11:07:18.678Z,17.5
2017-08-11T11:08:21.129Z,17.5
2017-08-11T11:09:23.592Z,17.5
2017-08-11T11:10:26.052Z,17.5
2017-08-11T11:11:28.845Z,17.5
2017-08-11T11:12:31.293Z,17.5
2017-08-11T11:13:33.755Z,17.5
2017-08-11T11:14:36.206Z,17.6
2017-08-11T11:15:39.011Z,17.6
2017-08-11T11:16:41.823Z,17.5
2017-08-11T11:17:44.618Z,17.6
2017-08-11T11:18:47.433Z,17.6
2017-08-11T11:19:50.218Z,17.6
2017-08-11T11:20:52.999Z,17.6
2017-08-11T11:21:55.456Z,17.6
2017-08-11T11:22:57.907Z,17.7
2017-08-11T11:24:00.692Z,17.7
2017-08-11T11:25:03.827Z,17.7
2017-08-11T11:26:06.300Z,17.7
2017-08-11T11:27:08.750Z,17.7
2017-08-11T11:28:11.219Z,17.8
2017-08-11T11:29:14.021Z,17.8
2017-08-11T11:30:16.468Z,17.9
2017-08-11T11:31:18.928Z,17.8
2017-08-11T11:32:21.731Z,17.8
2017-08-11T11:33:24.186Z,17.8
2017-08-11T11:34:26.637Z,17.8
2017-08-11T11:35:29.095Z,17.8
2017-08-11T11:36:31.891Z,17.8
2017-08-11T11:37:34.349Z,17.8
2017-08-11T11:38:36.807Z,17.8
2017-08-11T11:39:39.274Z,17.8
2017-08-11T11:40:41.732Z,17.8
2017-08-11T11:41:44.189Z,17.9
2017-08-11T11:42:46.651Z,17.8
2017-08-11T11:43:49.106Z,17.9
2017-08-11T11:44:54.631Z,17.9
2017-08-11T11:45:57.148Z,17.9
2017-08-11T11:46:59.576Z,17.9
2017-08-11T11:48:02.054Z,17.9
2017-08-11T11:49:04.573Z,17.9
2017-08-11T11:50:07.435Z,17.9
2017-08-11T11:51:09.962Z,17.9
2017-08-11T11:52:12.813Z,17.9
2017-08-11T11:53:15.358Z,17.9
2017-08-11T11:54:17.991Z,17.9
2017-08-11T11:55:20.825Z,17.9
2017-08-11T11:56:23.357Z,17.9
2017-08-11T11:57:25.862Z,17.9
2017-08-11T11:58:28.711Z,17.9
2017-08-11T11:59:31.567Z,17.8
2017-08-11T12:00:34.413Z,17.8
2017-08-11T12:01:36.913Z,17.8
2017-08-11T12:02:40.127Z,17.8
2017-08-11T12:03:43.005Z,17.8
2017-08-11T12:04:45.854Z,17.8
2017-08-11T12:05:48.710Z,17.8
2017-08-11T12:06:51.226Z,17.8
2017-08-11T12:07:54.447Z,17.9
2017-08-11T12:08:56.949Z,17.9
2017-08-11T12:10:00.131Z,17.9
2017-08-11T12:11:02.985Z,17.8
2017-08-11T12:12:05.513Z,17.9
2017-08-11T12:13:08.020Z,17.9
2017-08-11T12:14:10.867Z,17.8
2017-08-11T12:15:14.069Z,17.8
2017-08-11T12:16:16.606Z,17.8
2017-08-11T12:17:19.518Z,17.8
2017-08-11T12:18:22.695Z,17.7
2017-08-11T12:19:25.226Z,17.8
2017-08-11T12:20:27.786Z,17.8
2017-08-11T12:21:30.294Z,17.8
2017-08-11T12:22:32.804Z,17.8
2017-08-11T12:23:35.471Z,17.8
2017-08-11T12:24:38.361Z,17.8
2017-08-11T12:25:41.549Z,17.8
2017-08-11T12:26:44.420Z,17.7
2017-08-11T12:27:46.967Z,17.7
2017-08-11T12:28:49.475Z,17.8
2017-08-11T12:29:52.346Z,17.8
2017-08-11T12:30:54.871Z,17.8
2017-08-11T12:31:57.400Z,17.8
2017-08-11T12:32:59.931Z,17.8
2017-08-11T12:34:02.797Z,17.8
2017-08-11T12:35:05.658Z,17.8
2017-08-11T12:36:08.105Z,17.7
2017-08-11T12:37:10.527Z,17.7
2017-08-11T12:38:12.957Z,17.8
2017-08-11T12:39:15.395Z,17.8
2017-08-11T12:40:18.162Z,17.9
2017-08-11T12:41:20.585Z,17.9
2017-08-11T12:42:23.358Z,17.8
2017-08-11T12:43:26.127Z,17.9
2017-08-11T12:44:28.879Z,17.9
2017-08-11T12:45:31.297Z,17.8
2017-08-11T12:46:34.070Z,17.8
2017-08-11T12:47:36.843Z,17.8
2017-08-11T12:48:39.617Z,17.9
2017-08-11T12:49:42.407Z,17.9
2017-08-11T12:50:45.177Z,17.8
2017-08-11T12:51:48.416Z,17.9
2017-08-11T12:52:51.221Z,17.9
2017-08-11T12:53:53.627Z,17.8
2017-08-11T12:54:56.060Z,17.8
2017-08-11T12:55:58.863Z,17.9
2017-08-11T12:57:01.730Z,17.8
2017-08-11T12:58:04.490Z,17.9
2017-08-11T12:59:07.398Z,17.9
2017-08-11T13:00:09.827Z,17.9
2017-08-11T13:01:12.787Z,17.9
2017-08-11T13:02:15.203Z,17.9
2017-08-11T13:03:17.626Z,17.9
2017-08-11T13:04:21.437Z,17.9
2017-08-11T13:05:24.400Z,17.8
2017-08-11T13:06:26.832Z,17.8
2017-08-11T13:07:29.625Z,17.8
2017-08-11T13:08:32.372Z,17.8
2017-08-11T13:09:34.827Z,17.8
2017-08-11T13:10:37.385Z,17.8
2017-08-11T13:11:39.809Z,17.8
2017-08-11T13:12:42.236Z,17.8
2017-08-11T13:13:45.167Z,17.8
2017-08-11T13:14:47.584Z,17.7
2017-08-11T13:15:50.443Z,17.8
2017-08-11T13:16:52.899Z,17.7
2017-08-11T13:17:55.983Z,17.7
2017-08-11T13:18:58.411Z,17.7
2017-08-11T13:20:01.055Z,17.7
2017-08-11T13:21:03.818Z,17.7
2017-08-11T13:22:06.331Z,17.7
2017-08-11T13:23:08.744Z,17.7
2017-08-11T13:24:11.287Z,17.7
2017-08-11T13:25:13.729Z,17.7
2017-08-11T13:26:16.148Z,17.7
2017-08-11T13:27:18.575Z,17.7
2017-08-11T13:28:21.098Z,17.7
2017-08-11T13:29:23.543Z,17.7
2017-08-11T13:30:25.981Z,17.7
2017-08-11T13:31:29.092Z,17.7
2017-08-11T13:32:31.838Z,17.7
2017-08-11T13:33:35.169Z,17.7
2017-08-11T13:34:38.155Z,17.7
2017-08-11T13:35:41.258Z,17.7
2017-08-11T13:36:43.866Z,17.7
2017-08-11T13:37:46.284Z,17.7
2017-08-11T13:38:48.711Z,17.6
2017-08-11T13:39:51.255Z,17.6
2017-08-11T13:40:53.687Z,17.6
2017-08-11T13:41:56.107Z,17.6
2017-08-11T13:42:58.859Z,17.6
2017-08-11T13:44:01.295Z,17.6
2017-08-11T13:45:04.187Z,17.6
2017-08-11T13:46:06.612Z,17.6
2017-08-11T13:47:09.468Z,17.5
2017-08-11T13:48:11.893Z,17.6
2017-08-11T13:49:14.446Z,17.5
2017-08-11T13:50:17.439Z,17.5
2017-08-11T13:51:19.871Z,17.5
2017-08-11T13:52:22.346Z,17.5
2017-08-11T13:53:25.091Z,17.5
2017-08-11T13:54:27.513Z,17.5
2017-08-11T13:55:30.299Z,17.5
2017-08-11T13:56:32.959Z,17.5
2017-08-11T13:57:35.388Z,17.6
2017-08-11T13:58:38.646Z,17.6
2017-08-11T13:59:41.066Z,17.6